sensor_id;sensor_type;location;lat;lon;timestamp;pressure;altitude;pressure_sealevel;temperature;humidity
45285;BME280;31026;43.780;25.948;2023-01-27T00:00:59;100383.59;;;16.16;76.79
45285;BME280;31026;43.780;25.948;2023-01-27T00:03:27;100372.31;;;16.12;76.50
45285;BME280;31026;43.780;25.948;2023-01-27T00:05:56;100380.56;;;16.09;76.62
45285;BME280;31026;43.780;25.948;2023-01-27T00:08:28;100371.47;;;16.12;76.81
45285;BME280;31026;43.780;25.948;2023-01-27T00:10:56;100369.88;;;16.09;76.72
45285;BME280;31026;43.780;25.948;2023-01-27T00:13:37;100365.44;;;16.09;76.57
45285;BME280;31026;43.780;25.948;2023-01-27T00:16:05;100390.50;;;16.07;76.60
45285;BME280;31026;43.780;25.948;2023-01-27T00:18:33;100383.50;;;16.06;76.72
45285;BME280;31026;43.780;25.948;2023-01-27T00:21:02;100385.44;;;16.04;76.21
45285;BME280;31026;43.780;25.948;2023-01-27T00:23:45;100379.13;;;16.05;76.65
45285;BME280;31026;43.780;25.948;2023-01-27T00:26:26;100378.41;;;16.03;76.48
45285;BME280;31026;43.780;25.948;2023-01-27T00:28:54;100353.44;;;16.04;76.24
45285;BME280;31026;43.780;25.948;2023-01-27T00:31:22;100346.16;;;16.06;76.36
45285;BME280;31026;43.780;25.948;2023-01-27T00:34:03;100361.03;;;16.08;76.17
45285;BME280;31026;43.780;25.948;2023-01-27T00:36:36;100354.16;;;16.06;76.34
45285;BME280;31026;43.780;25.948;2023-01-27T00:39:08;100348.34;;;16.01;75.86
45285;BME280;31026;43.780;25.948;2023-01-27T00:41:37;100342.88;;;16.02;75.63
45285;BME280;31026;43.780;25.948;2023-01-27T00:44:05;100319.72;;;16.03;75.76
45285;BME280;31026;43.780;25.948;2023-01-27T00:46:36;100335.72;;;16.03;75.82
45285;BME280;31026;43.780;25.948;2023-01-27T00:49:05;100339.38;;;16.02;75.72
45285;BME280;31026;43.780;25.948;2023-01-27T00:51:33;100327.00;;;16.01;75.58
45285;BME280;31026;43.780;25.948;2023-01-27T00:54:01;100325.31;;;16.00;75.86
45285;BME280;31026;43.780;25.948;2023-01-27T00:56:32;100335.00;;;16.01;75.56
45285;BME280;31026;43.780;25.948;2023-01-27T00:59:01;100344.22;;;15.97;75.49
45285;BME280;31026;43.780;25.948;2023-01-27T01:01:29;100322.31;;;15.93;75.67
45285;BME280;31026;43.780;25.948;2023-01-27T01:03:58;100337.56;;;15.91;75.74
45285;BME280;31026;43.780;25.948;2023-01-27T01:06:26;100335.75;;;15.91;75.73
45285;BME280;31026;43.780;25.948;2023-01-27T01:08:55;100361.69;;;15.89;76.01
45285;BME280;31026;43.780;25.948;2023-01-27T01:11:23;100347.53;;;15.89;75.96
45285;BME280;31026;43.780;25.948;2023-01-27T01:13:54;100365.47;;;15.87;75.85
45285;BME280;31026;43.780;25.948;2023-01-27T01:16:23;100345.25;;;15.84;75.97
45285;BME280;31026;43.780;25.948;2023-01-27T01:18:52;100344.41;;;15.84;75.94
45285;BME280;31026;43.780;25.948;2023-01-27T01:21:20;100352.41;;;15.84;75.38
45285;BME280;31026;43.780;25.948;2023-01-27T01:23:48;100344.84;;;15.89;75.52
45285;BME280;31026;43.780;25.948;2023-01-27T01:26:17;100346.81;;;15.87;75.50
45285;BME280;31026;43.780;25.948;2023-01-27T01:28:45;100337.97;;;15.86;75.64
45285;BME280;31026;43.780;25.948;2023-01-27T01:31:17;100344.25;;;15.85;75.39
45285;BME280;31026;43.780;25.948;2023-01-27T01:33:47;100331.31;;;15.81;75.47
45285;BME280;31026;43.780;25.948;2023-01-27T01:36:17;100330.09;;;15.85;75.70
45285;BME280;31026;43.780;25.948;2023-01-27T01:38:45;100323.44;;;15.79;75.60
45285;BME280;31026;43.780;25.948;2023-01-27T01:41:15;100330.72;;;15.77;75.71
45285;BME280;31026;43.780;25.948;2023-01-27T01:43:44;100329.88;;;15.77;75.17
45285;BME280;31026;43.780;25.948;2023-01-27T01:46:12;100328.53;;;15.82;75.40
45285;BME280;31026;43.780;25.948;2023-01-27T01:48:44;100319.81;;;15.80;75.23
45285;BME280;31026;43.780;25.948;2023-01-27T01:51:15;100314.47;;;15.80;75.28
45285;BME280;31026;43.780;25.948;2023-01-27T01:53:46;100317.13;;;15.80;74.86
45285;BME280;31026;43.780;25.948;2023-01-27T01:56:17;100309.16;;;15.80;74.83
45285;BME280;31026;43.780;25.948;2023-01-27T01:58:47;100293.25;;;15.79;75.18
45285;BME280;31026;43.780;25.948;2023-01-27T02:01:17;100311.69;;;15.82;74.73
45285;BME280;31026;43.780;25.948;2023-01-27T02:03:50;100302.09;;;15.79;75.02
45285;BME280;31026;43.780;25.948;2023-01-27T02:06:20;100308.78;;;15.74;74.89
45285;BME280;31026;43.780;25.948;2023-01-27T02:08:49;100293.78;;;15.73;75.35
45285;BME280;31026;43.780;25.948;2023-01-27T02:11:18;100295.56;;;15.72;75.41
45285;BME280;31026;43.780;25.948;2023-01-27T02:13:46;100292.19;;;15.70;75.31
45285;BME280;31026;43.780;25.948;2023-01-27T02:16:15;100307.19;;;15.82;74.60
45285;BME280;31026;43.780;25.948;2023-01-27T02:18:43;100291.13;;;16.47;72.73
45285;BME280;31026;43.780;25.948;2023-01-27T02:21:14;100271.97;;;17.15;70.70
45285;BME280;31026;43.780;25.948;2023-01-27T02:23:45;100270.97;;;17.76;68.84
45285;BME280;31026;43.780;25.948;2023-01-27T02:26:18;100285.94;;;18.17;67.27
45285;BME280;31026;43.780;25.948;2023-01-27T02:28:51;100278.41;;;18.50;66.15
45285;BME280;31026;43.780;25.948;2023-01-27T02:31:20;100262.91;;;18.63;66.11
45285;BME280;31026;43.780;25.948;2023-01-27T02:33:48;100258.09;;;18.67;65.67
45285;BME280;31026;43.780;25.948;2023-01-27T02:36:17;100251.59;;;18.69;65.81
45285;BME280;31026;43.780;25.948;2023-01-27T02:38:46;100249.81;;;18.60;66.07
45285;BME280;31026;43.780;25.948;2023-01-27T02:41:19;100260.69;;;18.49;66.72
45285;BME280;31026;43.780;25.948;2023-01-27T02:43:48;100248.59;;;18.25;67.11
45285;BME280;31026;43.780;25.948;2023-01-27T02:46:16;100249.44;;;17.58;69.11
45285;BME280;31026;43.780;25.948;2023-01-27T02:48:45;100258.59;;;17.15;70.72
45285;BME280;31026;43.780;25.948;2023-01-27T02:51:13;100258.28;;;17.68;69.15
45285;BME280;31026;43.780;25.948;2023-01-27T02:53:42;100249.03;;;18.78;65.68
45285;BME280;31026;43.780;25.948;2023-01-27T02:56:10;100246.97;;;19.55;63.75
45285;BME280;31026;43.780;25.948;2023-01-27T02:58:41;100227.22;;;19.56;63.38
45285;BME280;31026;43.780;25.948;2023-01-27T03:01:09;100228.00;;;19.66;62.82
45285;BME280;31026;43.780;25.948;2023-01-27T03:03:38;100214.06;;;19.80;62.95
45285;BME280;31026;43.780;25.948;2023-01-27T03:06:08;100215.72;;;19.81;62.71
45285;BME280;31026;43.780;25.948;2023-01-27T03:08:36;100207.31;;;19.76;63.01
45285;BME280;31026;43.780;25.948;2023-01-27T03:11:04;100204.25;;;19.71;63.16
45285;BME280;31026;43.780;25.948;2023-01-27T03:13:33;100184.88;;;19.67;62.95
45285;BME280;31026;43.780;25.948;2023-01-27T03:16:05;100214.91;;;19.81;62.72
45285;BME280;31026;43.780;25.948;2023-01-27T03:18:46;100205.94;;;19.72;63.10
45285;BME280;31026;43.780;25.948;2023-01-27T03:21:15;100202.72;;;19.86;62.75
45285;BME280;31026;43.780;25.948;2023-01-27T03:23:44;100207.38;;;19.84;62.56
45285;BME280;31026;43.780;25.948;2023-01-27T03:26:13;100195.56;;;19.77;62.77
45285;BME280;31026;43.780;25.948;2023-01-27T03:28:41;100194.25;;;19.81;62.74
45285;BME280;31026;43.780;25.948;2023-01-27T03:31:32;100169.66;;;19.68;63.08
45285;BME280;31026;43.780;25.948;2023-01-27T03:34:00;100173.47;;;19.65;63.17
45285;BME280;31026;43.780;25.948;2023-01-27T03:36:29;100199.84;;;19.70;63.09
45285;BME280;31026;43.780;25.948;2023-01-27T03:39:09;100206.28;;;19.59;63.55
45285;BME280;31026;43.780;25.948;2023-01-27T03:41:50;100194.72;;;19.59;63.30
45285;BME280;31026;43.780;25.948;2023-01-27T03:44:31;100204.91;;;19.55;63.56
45285;BME280;31026;43.780;25.948;2023-01-27T03:47:14;100202.06;;;19.57;63.36
45285;BME280;31026;43.780;25.948;2023-01-27T03:49:42;100196.00;;;19.55;63.30
45285;BME280;31026;43.780;25.948;2023-01-27T03:52:10;100196.84;;;19.55;63.30
45285;BME280;31026;43.780;25.948;2023-01-27T03:54:39;100206.13;;;19.61;63.43
45285;BME280;31026;43.780;25.948;2023-01-27T03:57:07;100215.88;;;19.62;63.28
45285;BME280;31026;43.780;25.948;2023-01-27T03:59:35;100202.63;;;19.60;63.21
45285;BME280;31026;43.780;25.948;2023-01-27T04:02:04;100211.78;;;18.94;64.83
45285;BME280;31026;43.780;25.948;2023-01-27T04:04:47;100221.56;;;18.28;67.22
45285;BME280;31026;43.780;25.948;2023-01-27T04:07:27;100207.50;;;18.26;67.25
45285;BME280;31026;43.780;25.948;2023-01-27T04:09:56;100204.22;;;18.70;65.55
45285;BME280;31026;43.780;25.948;2023-01-27T04:12:24;100184.63;;;19.07;64.83
45285;BME280;31026;43.780;25.948;2023-01-27T04:14:50;100193.50;;;19.07;64.61
45285;BME280;31026;43.780;25.948;2023-01-27T04:17:18;100223.47;;;18.46;66.24
45285;BME280;31026;43.780;25.948;2023-01-27T04:19:49;100231.47;;;18.08;67.36
45285;BME280;31026;43.780;25.948;2023-01-27T04:22:17;100219.97;;;18.45;66.40
45285;BME280;31026;43.780;25.948;2023-01-27T04:24:45;100235.50;;;18.89;65.09
45285;BME280;31026;43.780;25.948;2023-01-27T04:27:14;100221.41;;;19.15;64.05
45285;BME280;31026;43.780;25.948;2023-01-27T04:29:44;100239.09;;;19.25;63.75
45285;BME280;31026;43.780;25.948;2023-01-27T04:32:12;100243.22;;;19.20;63.83
45285;BME280;31026;43.780;25.948;2023-01-27T04:34:41;100250.56;;;19.18;63.94
45285;BME280;31026;43.780;25.948;2023-01-27T04:37:12;100241.84;;;19.16;64.23
45285;BME280;31026;43.780;25.948;2023-01-27T04:39:40;100247.56;;;19.03;64.41
45285;BME280;31026;43.780;25.948;2023-01-27T04:42:09;100232.63;;;19.00;64.14
45285;BME280;31026;43.780;25.948;2023-01-27T04:44:38;100225.88;;;18.96;64.68
45285;BME280;31026;43.780;25.948;2023-01-27T04:47:06;100248.72;;;19.00;64.29
45285;BME280;31026;43.780;25.948;2023-01-27T04:49:34;100225.84;;;19.06;64.42
45285;BME280;31026;43.780;25.948;2023-01-27T04:52:03;100233.97;;;19.14;64.73
45285;BME280;31026;43.780;25.948;2023-01-27T04:57:04;100236.75;;;19.22;64.04
45285;BME280;31026;43.780;25.948;2023-01-27T04:59:33;100224.78;;;19.17;64.15
45285;BME280;31026;43.780;25.948;2023-01-27T05:02:01;100252.00;;;19.22;63.61
45285;BME280;31026;43.780;25.948;2023-01-27T05:04:30;100252.72;;;19.14;63.89
45285;BME280;31026;43.780;25.948;2023-01-27T05:06:58;100249.13;;;19.23;63.38
45285;BME280;31026;43.780;25.948;2023-01-27T05:09:26;100247.16;;;19.25;63.72
45285;BME280;31026;43.780;25.948;2023-01-27T05:11:55;100258.88;;;19.24;63.67
45285;BME280;31026;43.780;25.948;2023-01-27T05:14:26;100250.38;;;19.29;63.22
45285;BME280;31026;43.780;25.948;2023-01-27T05:16:54;100249.63;;;19.37;62.93
45285;BME280;31026;43.780;25.948;2023-01-27T05:19:22;100242.06;;;19.32;63.00
45285;BME280;31026;43.780;25.948;2023-01-27T05:21:50;100243.03;;;19.31;63.18
45285;BME280;31026;43.780;25.948;2023-01-27T05:24:19;100246.31;;;19.25;63.47
45285;BME280;31026;43.780;25.948;2023-01-27T05:26:47;100218.34;;;19.27;63.63
45285;BME280;31026;43.780;25.948;2023-01-27T05:29:15;100231.25;;;19.42;63.32
45285;BME280;31026;43.780;25.948;2023-01-27T05:31:46;100229.94;;;19.28;63.15
45285;BME280;31026;43.780;25.948;2023-01-27T05:34:15;100211.38;;;19.17;62.89
45285;BME280;31026;43.780;25.948;2023-01-27T05:36:43;100228.56;;;19.24;62.94
45285;BME280;31026;43.780;25.948;2023-01-27T05:39:12;100206.78;;;19.27;63.14
45285;BME280;31026;43.780;25.948;2023-01-27T05:41:40;100205.41;;;19.23;63.34
45285;BME280;31026;43.780;25.948;2023-01-27T05:44:09;100201.44;;;19.27;63.54
45285;BME280;31026;43.780;25.948;2023-01-27T05:46:38;100197.44;;;19.31;63.65
45285;BME280;31026;43.780;25.948;2023-01-27T05:49:09;100204.44;;;19.24;63.50
45285;BME280;31026;43.780;25.948;2023-01-27T05:51:38;100215.03;;;19.16;63.55
45285;BME280;31026;43.780;25.948;2023-01-27T05:54:07;100219.34;;;19.26;63.37
45285;BME280;31026;43.780;25.948;2023-01-27T05:56:36;100220.66;;;19.22;63.71
45285;BME280;31026;43.780;25.948;2023-01-27T05:59:04;100213.66;;;19.12;63.75
45285;BME280;31026;43.780;25.948;2023-01-27T06:01:33;100227.75;;;19.14;63.76
45285;BME280;31026;43.780;25.948;2023-01-27T06:04:02;100217.03;;;19.14;64.00
45285;BME280;31026;43.780;25.948;2023-01-27T06:06:33;100218.16;;;19.11;63.88
45285;BME280;31026;43.780;25.948;2023-01-27T06:09:01;100225.66;;;19.07;64.22
45285;BME280;31026;43.780;25.948;2023-01-27T06:11:30;100236.56;;;19.06;64.09
45285;BME280;31026;43.780;25.948;2023-01-27T06:13:58;100237.06;;;19.10;64.13
45285;BME280;31026;43.780;25.948;2023-01-27T06:16:26;100230.13;;;19.17;63.95
45285;BME280;31026;43.780;25.948;2023-01-27T06:18:55;100230.59;;;19.12;63.77
45285;BME280;31026;43.780;25.948;2023-01-27T06:21:23;100233.09;;;19.14;64.03
45285;BME280;31026;43.780;25.948;2023-01-27T06:23:54;100242.97;;;19.13;63.86
45285;BME280;31026;43.780;25.948;2023-01-27T06:26:23;100241.84;;;19.16;63.79
45285;BME280;31026;43.780;25.948;2023-01-27T06:28:51;100244.41;;;19.07;63.64
45285;BME280;31026;43.780;25.948;2023-01-27T06:31:20;100231.88;;;19.08;63.68
45285;BME280;31026;43.780;25.948;2023-01-27T06:33:49;100226.91;;;19.13;63.72
45285;BME280;31026;43.780;25.948;2023-01-27T06:36:18;100231.19;;;19.06;63.66
45285;BME280;31026;43.780;25.948;2023-01-27T06:38:46;100227.66;;;19.05;63.93
45285;BME280;31026;43.780;25.948;2023-01-27T06:41:17;100222.59;;;19.02;63.72
45285;BME280;31026;43.780;25.948;2023-01-27T06:43:46;100217.94;;;19.04;63.69
45285;BME280;31026;43.780;25.948;2023-01-27T06:46:14;100222.16;;;19.07;63.26
45285;BME280;31026;43.780;25.948;2023-01-27T06:48:42;100218.63;;;19.06;63.44
45285;BME280;31026;43.780;25.948;2023-01-27T06:51:11;100206.13;;;18.97;63.61
45285;BME280;31026;43.780;25.948;2023-01-27T06:53:39;100201.31;;;19.01;63.64
45285;BME280;31026;43.780;25.948;2023-01-27T06:56:07;100198.47;;;19.02;63.84
45285;BME280;31026;43.780;25.948;2023-01-27T06:58:38;100212.84;;;19.01;63.37
45285;BME280;31026;43.780;25.948;2023-01-27T07:01:07;100209.56;;;19.07;63.31
45285;BME280;31026;43.780;25.948;2023-01-27T07:03:35;100192.13;;;19.03;63.58
45285;BME280;31026;43.780;25.948;2023-01-27T07:06:04;100184.41;;;19.00;63.35
45285;BME280;31026;43.780;25.948;2023-01-27T07:08:32;100192.81;;;19.05;63.20
45285;BME280;31026;43.780;25.948;2023-01-27T07:11:01;100201.53;;;19.07;63.14
45285;BME280;31026;43.780;25.948;2023-01-27T07:13:30;100205.59;;;19.12;62.85
45285;BME280;31026;43.780;25.948;2023-01-27T07:16:01;100210.13;;;19.11;63.30
45285;BME280;31026;43.780;25.948;2023-01-27T07:18:29;100204.53;;;19.04;63.18
45285;BME280;31026;43.780;25.948;2023-01-27T07:20:58;100211.75;;;19.04;63.05
45285;BME280;31026;43.780;25.948;2023-01-27T07:23:26;100226.41;;;19.00;63.28
45285;BME280;31026;43.780;25.948;2023-01-27T07:25:54;100237.81;;;19.02;63.29
45285;BME280;31026;43.780;25.948;2023-01-27T07:28:23;100218.50;;;19.08;62.78
45285;BME280;31026;43.780;25.948;2023-01-27T07:30:51;100226.75;;;19.15;62.59
45285;BME280;31026;43.780;25.948;2023-01-27T07:33:22;100203.53;;;19.05;62.82
45285;BME280;31026;43.780;25.948;2023-01-27T07:35:50;100212.25;;;19.07;63.14
45285;BME280;31026;43.780;25.948;2023-01-27T07:38:19;100219.88;;;19.12;62.84
45285;BME280;31026;43.780;25.948;2023-01-27T07:40:47;100219.59;;;19.05;62.77
45285;BME280;31026;43.780;25.948;2023-01-27T07:43:16;100216.94;;;19.05;62.62
45285;BME280;31026;43.780;25.948;2023-01-27T07:45:44;100227.38;;;19.08;62.65
45285;BME280;31026;43.780;25.948;2023-01-27T07:48:15;100226.41;;;19.00;63.29
45285;BME280;31026;43.780;25.948;2023-01-27T07:50:46;100229.22;;;19.08;62.83
45285;BME280;31026;43.780;25.948;2023-01-27T07:53:14;100214.94;;;19.07;62.72
45285;BME280;31026;43.780;25.948;2023-01-27T07:55:42;100232.72;;;19.08;62.66
45285;BME280;31026;43.780;25.948;2023-01-27T07:58:11;100222.75;;;19.01;62.55
45285;BME280;31026;43.780;25.948;2023-01-27T08:00:39;100233.19;;;19.04;62.65
45285;BME280;31026;43.780;25.948;2023-01-27T08:03:12;100226.72;;;18.97;62.95
45285;BME280;31026;43.780;25.948;2023-01-27T08:05:50;100226.53;;;19.08;62.60
45285;BME280;31026;43.780;25.948;2023-01-27T08:08:18;100232.16;;;19.05;62.73
45285;BME280;31026;43.780;25.948;2023-01-27T08:10:46;100233.00;;;19.05;62.46
45285;BME280;31026;43.780;25.948;2023-01-27T08:19:06;100212.94;;;19.10;62.59
45285;BME280;31026;43.780;25.948;2023-01-27T08:21:37;100227.81;;;19.04;62.29
45285;BME280;31026;43.780;25.948;2023-01-27T08:24:06;100210.88;;;19.03;62.40
45285;BME280;31026;43.780;25.948;2023-01-27T08:26:34;100217.63;;;19.07;62.54
45285;BME280;31026;43.780;25.948;2023-01-27T08:29:02;100203.53;;;19.05;62.66
45285;BME280;31026;43.780;25.948;2023-01-27T08:31:31;100211.84;;;19.12;62.27
45285;BME280;31026;43.780;25.948;2023-01-27T08:33:59;100223.16;;;19.06;62.41
45285;BME280;31026;43.780;25.948;2023-01-27T08:36:27;100199.31;;;19.03;62.15
45285;BME280;31026;43.780;25.948;2023-01-27T08:38:58;100192.81;;;19.05;62.55
45285;BME280;31026;43.780;25.948;2023-01-27T08:41:26;100187.31;;;19.07;62.18
45285;BME280;31026;43.780;25.948;2023-01-27T08:43:55;100186.63;;;19.05;62.45
45285;BME280;31026;43.780;25.948;2023-01-27T08:46:23;100195.56;;;19.14;62.34
45285;BME280;31026;43.780;25.948;2023-01-27T08:48:51;100199.72;;;19.08;61.96
45285;BME280;31026;43.780;25.948;2023-01-27T08:51:20;100201.03;;;19.04;62.27
45285;BME280;31026;43.780;25.948;2023-01-27T08:53:48;100196.50;;;19.04;62.01
45285;BME280;31026;43.780;25.948;2023-01-27T08:56:19;100198.94;;;19.16;62.01
45285;BME280;31026;43.780;25.948;2023-01-27T08:58:47;100193.06;;;19.12;62.03
45285;BME280;31026;43.780;25.948;2023-01-27T09:01:16;100186.63;;;19.05;62.45
45285;BME280;31026;43.780;25.948;2023-01-27T09:03:46;100201.53;;;19.07;62.04
45285;BME280;31026;43.780;25.948;2023-01-27T09:06:14;100195.56;;;19.14;62.20
45285;BME280;31026;43.780;25.948;2023-01-27T09:08:43;100169.97;;;19.01;62.06
45285;BME280;31026;43.780;25.948;2023-01-27T09:11:34;100167.41;;;19.10;62.21
45285;BME280;31026;43.780;25.948;2023-01-27T09:14:02;100161.13;;;19.19;61.75
45285;BME280;31026;43.780;25.948;2023-01-27T09:16:30;100175.16;;;19.13;62.19
45285;BME280;31026;43.780;25.948;2023-01-27T09:18:59;100164.63;;;19.01;61.29
45285;BME280;31026;43.780;25.948;2023-01-27T09:21:28;100165.53;;;18.92;61.08
45285;BME280;31026;43.780;25.948;2023-01-27T09:23:56;100169.81;;;18.85;60.05
45285;BME280;31026;43.780;25.948;2023-01-27T09:26:24;100171.97;;;18.99;60.09
45285;BME280;31026;43.780;25.948;2023-01-27T09:28:55;100160.97;;;19.02;60.48
45285;BME280;31026;43.780;25.948;2023-01-27T09:31:24;100168.78;;;19.14;60.98
45285;BME280;31026;43.780;25.948;2023-01-27T09:33:52;100168.25;;;19.10;61.03
45285;BME280;31026;43.780;25.948;2023-01-27T09:36:20;100168.78;;;19.14;61.40
45285;BME280;31026;43.780;25.948;2023-01-27T09:38:51;100175.28;;;19.11;61.35
45285;BME280;31026;43.780;25.948;2023-01-27T09:41:31;100186.16;;;19.10;61.48
45285;BME280;31026;43.780;25.948;2023-01-27T09:44:10;100188.06;;;18.99;60.95
45285;BME280;31026;43.780;25.948;2023-01-27T09:46:49;100176.25;;;18.92;61.22
45285;BME280;31026;43.780;25.948;2023-01-27T09:49:33;100195.41;;;18.97;61.03
45285;BME280;31026;43.780;25.948;2023-01-27T09:52:09;100165.38;;;18.94;61.58
45285;BME280;31026;43.780;25.948;2023-01-27T09:54:45;100157.28;;;19.03;61.28
45285;BME280;31026;43.780;25.948;2023-01-27T09:57:20;100158.84;;;19.06;61.66
45285;BME280;31026;43.780;25.948;2023-01-27T10:00:02;100151.91;;;19.03;61.87
45285;BME280;31026;43.780;25.948;2023-01-27T10:02:45;100164.63;;;19.01;61.51
45285;BME280;31026;43.780;25.948;2023-01-27T10:08:09;100141.59;;;19.08;61.70
45285;BME280;31026;43.780;25.948;2023-01-27T10:10:47;100143.75;;;19.05;61.65
45285;BME280;31026;43.780;25.948;2023-01-27T10:13:22;100149.84;;;18.97;61.72
45285;BME280;31026;43.780;25.948;2023-01-27T10:16:08;100155.91;;;18.99;61.60
45285;BME280;31026;43.780;25.948;2023-01-27T10:18:42;100150.53;;;18.99;61.88
45285;BME280;31026;43.780;25.948;2023-01-27T10:21:16;100132.19;;;19.04;61.81
45285;BME280;31026;43.780;25.948;2023-01-27T10:23:49;100136.53;;;19.05;61.86
45285;BME280;31026;43.780;25.948;2023-01-27T10:26:26;100136.16;;;19.00;61.45
45285;BME280;31026;43.780;25.948;2023-01-27T10:28:58;100129.16;;;18.90;61.47
45285;BME280;31026;43.780;25.948;2023-01-27T10:31:32;100141.91;;;19.05;61.09
45285;BME280;31026;43.780;25.948;2023-01-27T10:34:04;100139.41;;;19.22;60.44
45285;BME280;31026;43.780;25.948;2023-01-27T10:36:37;100103.56;;;19.23;60.74
45285;BME280;31026;43.780;25.948;2023-01-27T10:39:12;100127.69;;;19.23;60.49
45285;BME280;31026;43.780;25.948;2023-01-27T10:41:46;100127.81;;;19.21;60.58
45285;BME280;31026;43.780;25.948;2023-01-27T10:44:29;100112.28;;;19.25;60.64
45285;BME280;31026;43.780;25.948;2023-01-27T10:47:05;100111.28;;;19.26;60.57
45285;BME280;31026;43.780;25.948;2023-01-27T10:49:37;100087.47;;;19.23;60.24
45285;BME280;31026;43.780;25.948;2023-01-27T10:52:08;100100.78;;;19.33;60.04
45285;BME280;31026;43.780;25.948;2023-01-27T10:54:39;100105.69;;;19.37;59.75
45285;BME280;31026;43.780;25.948;2023-01-27T10:57:10;100098.72;;;19.26;59.90
45285;BME280;31026;43.780;25.948;2023-01-27T10:59:43;100093.22;;;19.28;59.84
45285;BME280;31026;43.780;25.948;2023-01-27T11:02:19;100115.72;;;19.35;59.84
45285;BME280;31026;43.780;25.948;2023-01-27T11:04:51;100112.84;;;18.55;58.93
45285;BME280;31026;43.780;25.948;2023-01-27T11:07:22;100111.44;;;18.79;59.64
45285;BME280;31026;43.780;25.948;2023-01-27T11:09:53;100121.91;;;19.00;59.63
45285;BME280;31026;43.780;25.948;2023-01-27T11:12:26;100117.38;;;18.82;58.96
45285;BME280;31026;43.780;25.948;2023-01-27T11:14:56;100129.78;;;18.74;58.18
45285;BME280;31026;43.780;25.948;2023-01-27T11:17:30;100125.56;;;18.81;58.92
45285;BME280;31026;43.780;25.948;2023-01-27T11:20:02;100108.00;;;18.96;59.03
45285;BME280;31026;43.780;25.948;2023-01-27T11:22:34;100105.00;;;18.99;59.20
45285;BME280;31026;43.780;25.948;2023-01-27T11:25:04;100122.00;;;19.08;59.64
45285;BME280;31026;43.780;25.948;2023-01-27T11:27:41;100124.00;;;19.06;59.69
45285;BME280;31026;43.780;25.948;2023-01-27T11:30:15;100120.31;;;19.07;59.74
45285;BME280;31026;43.780;25.948;2023-01-27T11:32:49;100104.00;;;19.00;60.01
45285;BME280;31026;43.780;25.948;2023-01-27T11:35:20;100102.47;;;19.16;60.01
45285;BME280;31026;43.780;25.948;2023-01-27T11:37:49;100107.25;;;19.22;60.00
45285;BME280;31026;43.780;25.948;2023-01-27T11:40:20;100117.41;;;19.18;60.32
45285;BME280;31026;43.780;25.948;2023-01-27T11:42:49;100108.97;;;19.13;60.61
45285;BME280;31026;43.780;25.948;2023-01-27T11:45:18;100110.34;;;19.17;60.49
45285;BME280;31026;43.780;25.948;2023-01-27T11:47:51;100103.31;;;19.16;60.91
45285;BME280;31026;43.780;25.948;2023-01-27T11:50:21;100110.63;;;19.24;61.24
45285;BME280;31026;43.780;25.948;2023-01-27T11:52:50;100106.91;;;19.25;61.20
45285;BME280;31026;43.780;25.948;2023-01-27T11:55:22;100098.25;;;19.13;61.47
45285;BME280;31026;43.780;25.948;2023-01-27T11:57:55;100086.16;;;19.09;61.35
45285;BME280;31026;43.780;25.948;2023-01-27T12:00:25;100093.66;;;19.05;60.96
45285;BME280;31026;43.780;25.948;2023-01-27T12:03:00;100110.34;;;19.17;61.37
45285;BME280;31026;43.780;25.948;2023-01-27T12:05:32;100098.81;;;19.17;61.40
45285;BME280;31026;43.780;25.948;2023-01-27T12:08:01;100095.13;;;19.18;61.57
45285;BME280;31026;43.780;25.948;2023-01-27T12:10:31;100112.06;;;19.18;61.28
45285;BME280;31026;43.780;25.948;2023-01-27T12:13:01;100104.16;;;19.17;61.67
45285;BME280;31026;43.780;25.948;2023-01-27T12:15:34;100104.72;;;19.20;61.66
45285;BME280;31026;43.780;25.948;2023-01-27T12:18:09;100101.88;;;19.22;61.87
45285;BME280;31026;43.780;25.948;2023-01-27T12:20:39;100108.91;;;19.23;61.69
45285;BME280;31026;43.780;25.948;2023-01-27T12:23:18;100108.91;;;19.23;61.39
45285;BME280;31026;43.780;25.948;2023-01-27T12:25:49;100096.53;;;19.22;61.84
45285;BME280;31026;43.780;25.948;2023-01-27T12:28:22;100099.28;;;19.30;61.19
45285;BME280;31026;43.780;25.948;2023-01-27T12:30:51;100104.31;;;19.33;61.28
45285;BME280;31026;43.780;25.948;2023-01-27T12:33:24;100112.41;;;19.41;61.16
45285;BME280;31026;43.780;25.948;2023-01-27T12:35:56;100127.75;;;19.31;61.26
45285;BME280;31026;43.780;25.948;2023-01-27T12:38:26;100119.63;;;19.23;61.40
45285;BME280;31026;43.780;25.948;2023-01-27T12:40:57;100109.66;;;19.33;61.55
45285;BME280;31026;43.780;25.948;2023-01-27T12:43:26;100112.69;;;19.30;61.50
45285;BME280;31026;43.780;25.948;2023-01-27T12:46:05;100118.66;;;19.24;61.42
45285;BME280;31026;43.780;25.948;2023-01-27T12:48:43;100127.38;;;19.26;61.49
45285;BME280;31026;43.780;25.948;2023-01-27T12:51:13;100128.06;;;19.28;61.89
45285;BME280;31026;43.780;25.948;2023-01-27T12:53:42;100127.38;;;19.26;62.62
45285;BME280;31026;43.780;25.948;2023-01-27T12:56:11;100130.06;;;19.26;63.49
45285;BME280;31026;43.780;25.948;2023-01-27T12:58:41;100112.81;;;19.11;63.33
45285;BME280;31026;43.780;25.948;2023-01-27T13:01:23;100115.16;;;18.96;63.15
45285;BME280;31026;43.780;25.948;2023-01-27T13:03:56;100127.66;;;19.05;63.99
45285;BME280;31026;43.780;25.948;2023-01-27T13:06:29;100115.41;;;19.02;64.52
45285;BME280;31026;43.780;25.948;2023-01-27T13:09:00;100118.88;;;19.13;65.18